sensor_id;sensor_type;location;lat;lon;timestamp;P1;durP1;ratioP1;P2;durP2;ratioP2
5754;SDS011;2902;42.130;24.732;2023-05-14T00:01:33;3.63;;;2.90;;
5754;SDS011;2902;42.130;24.732;2023-05-14T00:04:00;5.53;;;2.90;;
5754;SDS011;2902;42.130;24.732;2023-05-14T00:06:27;4.60;;;3.03;;
5754;SDS011;2902;42.130;24.732;2023-05-14T00:08:53;3.20;;;2.73;;
5754;SDS011;2902;42.130;24.732;2023-05-14T00:11:21;3.67;;;3.13;;
5754;SDS011;2902;42.130;24.732;2023-05-14T00:13:49;3.30;;;3.10;;
5754;SDS011;2902;42.130;24.732;2023-05-14T00:16:16;2.80;;;2.67;;
5754;SDS011;2902;42.130;24.732;2023-05-14T00:18:43;3.27;;;3.00;;
5754;SDS011;2902;42.130;24.732;2023-05-14T00:21:09;3.43;;;3.13;;
5754;SDS011;2902;42.130;24.732;2023-05-14T00:23:37;3.20;;;3.00;;
5754;SDS011;2902;42.130;24.732;2023-05-14T00:26:03;2.93;;;2.83;;
5754;SDS011;2902;42.130;24.732;2023-05-14T00:28:30;3.23;;;2.90;;
5754;SDS011;2902;42.130;24.732;2023-05-14T00:30:58;2.80;;;2.60;;
5754;SDS011;2902;42.130;24.732;2023-05-14T00:33:25;3.73;;;3.33;;
5754;SDS011;2902;42.130;24.732;2023-05-14T00:35:52;2.67;;;2.57;;
5754;SDS011;2902;42.130;24.732;2023-05-14T00:38:18;3.60;;;2.70;;
5754;SDS011;2902;42.130;24.732;2023-05-14T00:40:45;3.17;;;2.97;;
5754;SDS011;2902;42.130;24.732;2023-05-14T00:43:15;2.83;;;2.63;;
5754;SDS011;2902;42.130;24.732;2023-05-14T00:45:43;2.93;;;2.57;;
5754;SDS011;2902;42.130;24.732;2023-05-14T00:48:11;5.10;;;2.90;;
5754;SDS011;2902;42.130;24.732;2023-05-14T00:50:38;3.20;;;3.00;;
5754;SDS011;2902;42.130;24.732;2023-05-14T00:53:05;3.10;;;2.80;;
5754;SDS011;2902;42.130;24.732;2023-05-14T00:55:34;3.27;;;3.00;;
5754;SDS011;2902;42.130;24.732;2023-05-14T00:58:03;3.30;;;2.53;;
5754;SDS011;2902;42.130;24.732;2023-05-14T01:00:32;3.03;;;2.80;;
5754;SDS011;2902;42.130;24.732;2023-05-14T01:02:59;4.53;;;2.93;;
5754;SDS011;2902;42.130;24.732;2023-05-14T01:05:29;5.33;;;3.80;;
5754;SDS011;2902;42.130;24.732;2023-05-14T01:08:06;5.10;;;3.43;;
5754;SDS011;2902;42.130;24.732;2023-05-14T01:10:41;3.20;;;3.00;;
5754;SDS011;2902;42.130;24.732;2023-05-14T01:13:16;4.57;;;3.33;;
5754;SDS011;2902;42.130;24.732;2023-05-14T01:15:48;3.80;;;3.40;;
5754;SDS011;2902;42.130;24.732;2023-05-14T01:18:16;3.50;;;3.20;;
5754;SDS011;2902;42.130;24.732;2023-05-14T01:20:45;3.40;;;3.20;;
5754;SDS011;2902;42.130;24.732;2023-05-14T01:23:17;5.53;;;3.30;;
5754;SDS011;2902;42.130;24.732;2023-05-14T01:25:44;4.73;;;3.67;;
5754;SDS011;2902;42.130;24.732;2023-05-14T01:28:12;5.00;;;3.70;;
5754;SDS011;2902;42.130;24.732;2023-05-14T01:30:44;4.90;;;4.03;;
5754;SDS011;2902;42.130;24.732;2023-05-14T01:33:13;3.87;;;3.57;;
5754;SDS011;2902;42.130;24.732;2023-05-14T01:35:42;3.87;;;3.47;;
5754;SDS011;2902;42.130;24.732;2023-05-14T01:38:10;4.10;;;3.70;;
5754;SDS011;2902;42.130;24.732;2023-05-14T01:40:40;3.87;;;3.57;;
5754;SDS011;2902;42.130;24.732;2023-05-14T01:43:07;4.07;;;3.80;;
5754;SDS011;2902;42.130;24.732;2023-05-14T01:45:34;5.03;;;3.73;;
5754;SDS011;2902;42.130;24.732;2023-05-14T01:48:02;4.83;;;3.83;;
5754;SDS011;2902;42.130;24.732;2023-05-14T01:50:29;3.87;;;3.67;;
5754;SDS011;2902;42.130;24.732;2023-05-14T01:52:56;4.10;;;3.60;;
5754;SDS011;2902;42.130;24.732;2023-05-14T01:55:23;4.43;;;3.60;;
5754;SDS011;2902;42.130;24.732;2023-05-14T01:57:51;6.40;;;3.57;;
5754;SDS011;2902;42.130;24.732;2023-05-14T02:00:19;7.97;;;3.40;;
5754;SDS011;2902;42.130;24.732;2023-05-14T02:02:50;5.47;;;3.40;;
5754;SDS011;2902;42.130;24.732;2023-05-14T02:05:17;3.77;;;3.43;;
5754;SDS011;2902;42.130;24.732;2023-05-14T02:07:44;3.30;;;3.10;;
5754;SDS011;2902;42.130;24.732;2023-05-14T02:10:10;6.77;;;3.87;;
5754;SDS011;2902;42.130;24.732;2023-05-14T02:12:37;4.27;;;3.87;;
5754;SDS011;2902;42.130;24.732;2023-05-14T02:15:06;3.80;;;3.50;;
5754;SDS011;2902;42.130;24.732;2023-05-14T02:17:35;6.40;;;5.80;;
5754;SDS011;2902;42.130;24.732;2023-05-14T02:20:01;6.30;;;5.70;;
5754;SDS011;2902;42.130;24.732;2023-05-14T02:22:28;5.77;;;5.37;;
5754;SDS011;2902;42.130;24.732;2023-05-14T02:24:55;7.00;;;5.70;;
5754;SDS011;2902;42.130;24.732;2023-05-14T02:27:22;5.77;;;5.33;;
5754;SDS011;2902;42.130;24.732;2023-05-14T02:29:49;5.10;;;4.70;;
5754;SDS011;2902;42.130;24.732;2023-05-14T02:32:17;6.00;;;4.37;;
5754;SDS011;2902;42.130;24.732;2023-05-14T02:34:43;5.73;;;4.00;;
5754;SDS011;2902;42.130;24.732;2023-05-14T02:37:10;5.30;;;3.80;;
5754;SDS011;2902;42.130;24.732;2023-05-14T02:39:37;4.63;;;3.37;;
5754;SDS011;2902;42.130;24.732;2023-05-14T02:42:03;4.00;;;3.70;;
5754;SDS011;2902;42.130;24.732;2023-05-14T02:44:31;4.57;;;3.37;;
5754;SDS011;2902;42.130;24.732;2023-05-14T02:46:57;6.87;;;3.20;;
5754;SDS011;2902;42.130;24.732;2023-05-14T02:49:25;4.67;;;3.30;;
5754;SDS011;2902;42.130;24.732;2023-05-14T02:51:52;5.33;;;3.23;;
5754;SDS011;2902;42.130;24.732;2023-05-14T02:54:19;3.60;;;3.40;;
5754;SDS011;2902;42.130;24.732;2023-05-14T02:56:46;5.73;;;3.83;;
5754;SDS011;2902;42.130;24.732;2023-05-14T02:59:12;3.60;;;3.40;;
5754;SDS011;2902;42.130;24.732;2023-05-14T03:01:39;3.60;;;3.40;;
5754;SDS011;2902;42.130;24.732;2023-05-14T03:04:06;3.63;;;3.43;;
5754;SDS011;2902;42.130;24.732;2023-05-14T03:06:34;3.77;;;3.47;;
5754;SDS011;2902;42.130;24.732;2023-05-14T03:09:01;3.60;;;3.30;;
5754;SDS011;2902;42.130;24.732;2023-05-14T03:11:28;4.10;;;3.70;;
5754;SDS011;2902;42.130;24.732;2023-05-14T03:13:55;4.73;;;4.43;;
5754;SDS011;2902;42.130;24.732;2023-05-14T03:16:21;4.40;;;4.00;;
5754;SDS011;2902;42.130;24.732;2023-05-14T03:18:48;5.40;;;4.97;;
5754;SDS011;2902;42.130;24.732;2023-05-14T03:21:15;4.63;;;4.23;;
5754;SDS011;2902;42.130;24.732;2023-05-14T03:23:43;4.67;;;4.30;;
5754;SDS011;2902;42.130;24.732;2023-05-14T03:26:10;5.40;;;4.47;;
5754;SDS011;2902;42.130;24.732;2023-05-14T03:28:36;5.17;;;4.57;;
5754;SDS011;2902;42.130;24.732;2023-05-14T03:31:03;5.40;;;4.90;;
5754;SDS011;2902;42.130;24.732;2023-05-14T03:33:30;5.20;;;4.60;;
5754;SDS011;2902;42.130;24.732;2023-05-14T03:35:57;6.17;;;4.83;;
5754;SDS011;2902;42.130;24.732;2023-05-14T03:38:23;4.67;;;4.47;;
5754;SDS011;2902;42.130;24.732;2023-05-14T03:40:51;6.70;;;5.20;;
5754;SDS011;2902;42.130;24.732;2023-05-14T03:43:18;5.00;;;4.60;;
5754;SDS011;2902;42.130;24.732;2023-05-14T03:45:45;5.17;;;4.53;;
5754;SDS011;2902;42.130;24.732;2023-05-14T03:48:16;4.63;;;4.23;;
5754;SDS011;2902;42.130;24.732;2023-05-14T03:50:43;4.67;;;3.63;;
5754;SDS011;2902;42.130;24.732;2023-05-14T03:53:10;6.60;;;3.90;;
5754;SDS011;2902;42.130;24.732;2023-05-14T03:55:36;4.23;;;3.87;;
5754;SDS011;2902;42.130;24.732;2023-05-14T03:58:04;4.27;;;3.87;;
5754;SDS011;2902;42.130;24.732;2023-05-14T04:00:37;4.70;;;4.20;;
5754;SDS011;2902;42.130;24.732;2023-05-14T04:03:04;4.03;;;3.53;;
5754;SDS011;2902;42.130;24.732;2023-05-14T04:05:31;6.23;;;3.87;;
5754;SDS011;2902;42.130;24.732;2023-05-14T04:07:58;6.33;;;3.90;;
5754;SDS011;2902;42.130;24.732;2023-05-14T04:10:24;3.63;;;3.23;;
5754;SDS011;2902;42.130;24.732;2023-05-14T04:12:51;4.53;;;3.63;;
5754;SDS011;2902;42.130;24.732;2023-05-14T04:15:20;5.13;;;3.30;;
5754;SDS011;2902;42.130;24.732;2023-05-14T04:17:47;4.20;;;3.80;;
5754;SDS011;2902;42.130;24.732;2023-05-14T04:20:14;7.77;;;3.90;;
5754;SDS011;2902;42.130;24.732;2023-05-14T04:22:41;3.53;;;3.33;;
5754;SDS011;2902;42.130;24.732;2023-05-14T04:25:07;4.00;;;3.30;;
5754;SDS011;2902;42.130;24.732;2023-05-14T04:27:34;3.70;;;3.40;;
5754;SDS011;2902;42.130;24.732;2023-05-14T04:30:01;3.87;;;3.30;;
5754;SDS011;2902;42.130;24.732;2023-05-14T04:32:30;5.90;;;3.77;;
5754;SDS011;2902;42.130;24.732;2023-05-14T04:34:56;5.07;;;3.60;;
5754;SDS011;2902;42.130;24.732;2023-05-14T04:37:23;5.03;;;3.50;;
5754;SDS011;2902;42.130;24.732;2023-05-14T04:39:50;4.07;;;3.77;;
5754;SDS011;2902;42.130;24.732;2023-05-14T04:42:16;4.27;;;3.97;;
5754;SDS011;2902;42.130;24.732;2023-05-14T04:44:43;4.40;;;3.50;;
5754;SDS011;2902;42.130;24.732;2023-05-14T04:47:10;4.17;;;3.77;;
5754;SDS011;2902;42.130;24.732;2023-05-14T04:49:38;3.77;;;3.57;;
5754;SDS011;2902;42.130;24.732;2023-05-14T04:52:05;4.47;;;4.17;;
5754;SDS011;2902;42.130;24.732;2023-05-14T04:54:32;5.97;;;4.23;;
5754;SDS011;2902;42.130;24.732;2023-05-14T04:56:58;4.50;;;4.10;;
5754;SDS011;2902;42.130;24.732;2023-05-14T04:59:27;5.17;;;4.33;;
5754;SDS011;2902;42.130;24.732;2023-05-14T05:01:54;5.60;;;4.47;;
5754;SDS011;2902;42.130;24.732;2023-05-14T05:04:20;7.13;;;5.03;;
5754;SDS011;2902;42.130;24.732;2023-05-14T05:06:49;4.20;;;4.00;;
5754;SDS011;2902;42.130;24.732;2023-05-14T05:09:16;5.00;;;4.10;;
5754;SDS011;2902;42.130;24.732;2023-05-14T05:11:43;4.80;;;4.33;;
5754;SDS011;2902;42.130;24.732;2023-05-14T05:14:09;5.63;;;4.20;;
5754;SDS011;2902;42.130;24.732;2023-05-14T05:16:36;5.10;;;4.00;;
5754;SDS011;2902;42.130;24.732;2023-05-14T05:19:03;5.80;;;4.63;;
5754;SDS011;2902;42.130;24.732;2023-05-14T05:21:29;5.53;;;4.77;;
5754;SDS011;2902;42.130;24.732;2023-05-14T05:23:57;9.47;;;3.20;;
5754;SDS011;2902;42.130;24.732;2023-05-14T05:26:25;6.07;;;4.97;;
5754;SDS011;2902;42.130;24.732;2023-05-14T05:28:52;4.37;;;3.97;;
5754;SDS011;2902;42.130;24.732;2023-05-14T05:31:18;4.77;;;4.27;;
5754;SDS011;2902;42.130;24.732;2023-05-14T05:33:45;4.97;;;3.80;;
5754;SDS011;2902;42.130;24.732;2023-05-14T05:36:12;5.67;;;3.03;;
5754;SDS011;2902;42.130;24.732;2023-05-14T05:38:39;3.97;;;3.00;;
5754;SDS011;2902;42.130;24.732;2023-05-14T05:41:07;6.00;;;3.07;;
5754;SDS011;2902;42.130;24.732;2023-05-14T05:43:34;4.90;;;4.50;;
5754;SDS011;2902;42.130;24.732;2023-05-14T05:46:01;11.20;;;4.13;;
5754;SDS011;2902;42.130;24.732;2023-05-14T05:48:27;5.77;;;4.20;;
5754;SDS011;2902;42.130;24.732;2023-05-14T05:50:54;3.80;;;3.50;;
5754;SDS011;2902;42.130;24.732;2023-05-14T05:53:21;7.27;;;3.77;;
5754;SDS011;2902;42.130;24.732;2023-05-14T05:55:47;8.97;;;4.20;;
5754;SDS011;2902;42.130;24.732;2023-05-14T05:58:17;4.50;;;4.07;;
5754;SDS011;2902;42.130;24.732;2023-05-14T06:00:43;4.00;;;3.57;;
5754;SDS011;2902;42.130;24.732;2023-05-14T06:03:11;3.87;;;3.50;;
5754;SDS011;2902;42.130;24.732;2023-05-14T06:05:38;4.57;;;4.17;;
5754;SDS011;2902;42.130;24.732;2023-05-14T06:08:05;5.07;;;4.57;;
5754;SDS011;2902;42.130;24.732;2023-05-14T06:10:32;4.63;;;4.10;;
5754;SDS011;2902;42.130;24.732;2023-05-14T06:12:58;3.60;;;3.23;;
5754;SDS011;2902;42.130;24.732;2023-05-14T06:15:27;5.27;;;4.23;;
5754;SDS011;2902;42.130;24.732;2023-05-14T06:17:53;4.63;;;4.33;;
5754;SDS011;2902;42.130;24.732;2023-05-14T06:20:20;5.00;;;3.90;;
5754;SDS011;2902;42.130;24.732;2023-05-14T06:22:47;7.23;;;3.93;;
5754;SDS011;2902;42.130;24.732;2023-05-14T06:25:13;5.37;;;4.97;;
5754;SDS011;2902;42.130;24.732;2023-05-14T06:27:40;12.40;;;11.20;;
5754;SDS011;2902;42.130;24.732;2023-05-14T06:30:07;7.93;;;5.63;;
5754;SDS011;2902;42.130;24.732;2023-05-14T06:32:37;5.10;;;4.60;;
5754;SDS011;2902;42.130;24.732;2023-05-14T06:35:04;5.50;;;4.50;;
5754;SDS011;2902;42.130;24.732;2023-05-14T06:37:31;10.23;;;7.43;;
5754;SDS011;2902;42.130;24.732;2023-05-14T06:39:58;8.20;;;4.80;;
5754;SDS011;2902;42.130;24.732;2023-05-14T06:42:26;4.50;;;4.20;;
5754;SDS011;2902;42.130;24.732;2023-05-14T06:44:52;5.50;;;4.53;;
5754;SDS011;2902;42.130;24.732;2023-05-14T06:47:20;5.53;;;5.07;;
5754;SDS011;2902;42.130;24.732;2023-05-14T06:49:48;5.83;;;4.70;;
5754;SDS011;2902;42.130;24.732;2023-05-14T06:52:14;5.90;;;5.47;;
5754;SDS011;2902;42.130;24.732;2023-05-14T06:54:41;5.60;;;5.20;;
5754;SDS011;2902;42.130;24.732;2023-05-14T06:57:08;6.97;;;6.13;;
5754;SDS011;2902;42.130;24.732;2023-05-14T06:59:34;6.93;;;6.23;;
5754;SDS011;2902;42.130;24.732;2023-05-14T07:02:02;7.07;;;5.13;;
5754;SDS011;2902;42.130;24.732;2023-05-14T07:04:28;5.87;;;5.43;;
5754;SDS011;2902;42.130;24.732;2023-05-14T07:06:56;8.27;;;6.30;;
5754;SDS011;2902;42.130;24.732;2023-05-14T07:09:23;10.10;;;5.93;;
5754;SDS011;2902;42.130;24.732;2023-05-14T07:11:50;10.80;;;5.80;;
5754;SDS011;2902;42.130;24.732;2023-05-14T07:14:16;8.50;;;5.93;;
5754;SDS011;2902;42.130;24.732;2023-05-14T07:16:43;7.70;;;6.37;;
5754;SDS011;2902;42.130;24.732;2023-05-14T07:19:11;7.67;;;6.20;;
5754;SDS011;2902;42.130;24.732;2023-05-14T07:21:37;7.60;;;6.77;;
5754;SDS011;2902;42.130;24.732;2023-05-14T07:24:06;6.70;;;6.10;;
5754;SDS011;2902;42.130;24.732;2023-05-14T07:26:33;7.27;;;6.70;;
5754;SDS011;2902;42.130;24.732;2023-05-14T07:28:59;6.87;;;6.20;;
5754;SDS011;2902;42.130;24.732;2023-05-14T07:31:26;6.07;;;5.47;;
5754;SDS011;2902;42.130;24.732;2023-05-14T07:33:53;6.83;;;6.23;;
5754;SDS011;2902;42.130;24.732;2023-05-14T07:36:19;7.13;;;5.73;;
5754;SDS011;2902;42.130;24.732;2023-05-14T07:38:46;7.93;;;5.77;;
5754;SDS011;2902;42.130;24.732;2023-05-14T07:41:14;7.77;;;6.33;;
5754;SDS011;2902;42.130;24.732;2023-05-14T07:43:41;9.93;;;6.13;;
5754;SDS011;2902;42.130;24.732;2023-05-14T07:46:08;10.20;;;6.77;;
5754;SDS011;2902;42.130;24.732;2023-05-14T07:48:35;8.50;;;6.17;;
5754;SDS011;2902;42.130;24.732;2023-05-14T07:51:01;9.93;;;6.43;;
5754;SDS011;2902;42.130;24.732;2023-05-14T07:53:28;7.47;;;4.07;;
5754;SDS011;2902;42.130;24.732;2023-05-14T07:55:55;6.53;;;4.67;;
5754;SDS011;2902;42.130;24.732;2023-05-14T07:58:25;8.87;;;5.10;;
5754;SDS011;2902;42.130;24.732;2023-05-14T08:00:53;5.97;;;5.00;;
5754;SDS011;2902;42.130;24.732;2023-05-14T08:03:20;9.37;;;5.97;;
5754;SDS011;2902;42.130;24.732;2023-05-14T08:05:47;5.93;;;5.23;;
5754;SDS011;2902;42.130;24.732;2023-05-14T08:08:14;6.60;;;5.93;;
5754;SDS011;2902;42.130;24.732;2023-05-14T08:10:41;6.90;;;6.30;;
5754;SDS011;2902;42.130;24.732;2023-05-14T08:13:08;15.87;;;10.40;;
5754;SDS011;2902;42.130;24.732;2023-05-14T08:15:36;10.63;;;8.67;;
5754;SDS011;2902;42.130;24.732;2023-05-14T08:18:03;9.93;;;7.37;;
5754;SDS011;2902;42.130;24.732;2023-05-14T08:20:30;8.27;;;7.33;;
5754;SDS011;2902;42.130;24.732;2023-05-14T08:22:56;8.43;;;7.73;;
5754;SDS011;2902;42.130;24.732;2023-05-14T08:25:23;9.53;;;8.53;;
5754;SDS011;2902;42.130;24.732;2023-05-14T08:27:51;9.60;;;8.63;;
5754;SDS011;2902;42.130;24.732;2023-05-14T08:30:18;9.33;;;8.43;;
5754;SDS011;2902;42.130;24.732;2023-05-14T08:32:49;9.80;;;8.97;;
5754;SDS011;2902;42.130;24.732;2023-05-14T08:35:16;9.70;;;8.80;;
5754;SDS011;2902;42.130;24.732;2023-05-14T08:37:43;9.53;;;8.57;;
5754;SDS011;2902;42.130;24.732;2023-05-14T08:40:10;10.37;;;9.40;;
5754;SDS011;2902;42.130;24.732;2023-05-14T08:42:38;10.23;;;9.20;;
5754;SDS011;2902;42.130;24.732;2023-05-14T08:45:06;10.10;;;9.10;;
5754;SDS011;2902;42.130;24.732;2023-05-14T08:47:38;12.20;;;9.03;;
5754;SDS011;2902;42.130;24.732;2023-05-14T08:50:07;16.23;;;11.00;;
5754;SDS011;2902;42.130;24.732;2023-05-14T08:52:34;9.00;;;8.20;;
5754;SDS011;2902;42.130;24.732;2023-05-14T08:55:02;13.40;;;10.53;;
5754;SDS011;2902;42.130;24.732;2023-05-14T08:57:30;14.67;;;12.03;;
5754;SDS011;2902;42.130;24.732;2023-05-14T08:59:58;7.73;;;7.03;;
5754;SDS011;2902;42.130;24.732;2023-05-14T09:02:27;18.90;;;10.40;;
5754;SDS011;2902;42.130;24.732;2023-05-14T09:04:55;11.10;;;9.17;;
5754;SDS011;2902;42.130;24.732;2023-05-14T09:07:25;9.50;;;7.60;;
5754;SDS011;2902;42.130;24.732;2023-05-14T09:09:52;7.93;;;7.17;;
5754;SDS011;2902;42.130;24.732;2023-05-14T09:12:19;7.43;;;6.87;;
5754;SDS011;2902;42.130;24.732;2023-05-14T09:14:47;10.67;;;8.73;;
5754;SDS011;2902;42.130;24.732;2023-05-14T09:17:15;10.90;;;9.80;;
5754;SDS011;2902;42.130;24.732;2023-05-14T09:19:42;10.30;;;8.60;;
5754;SDS011;2902;42.130;24.732;2023-05-14T09:22:12;8.87;;;7.83;;
5754;SDS011;2902;42.130;24.732;2023-05-14T09:24:41;8.63;;;7.03;;
5754;SDS011;2902;42.130;24.732;2023-05-14T09:27:09;7.70;;;7.10;;
5754;SDS011;2902;42.130;24.732;2023-05-14T09:29:43;8.30;;;7.67;;
5754;SDS011;2902;42.130;24.732;2023-05-14T09:32:10;8.07;;;7.27;;
5754;SDS011;2902;42.130;24.732;2023-05-14T09:34:36;8.10;;;7.20;;
5754;SDS011;2902;42.130;24.732;2023-05-14T09:37:04;7.37;;;6.67;;
5754;SDS011;2902;42.130;24.732;2023-05-14T09:39:32;7.90;;;7.40;;
5754;SDS011;2902;42.130;24.732;2023-05-14T09:42:01;10.70;;;8.67;;
5754;SDS011;2902;42.130;24.732;2023-05-14T09:44:28;8.23;;;7.47;;
5754;SDS011;2902;42.130;24.732;2023-05-14T09:46:55;8.87;;;7.97;;
5754;SDS011;2902;42.130;24.732;2023-05-14T09:49:23;16.73;;;10.83;;
5754;SDS011;2902;42.130;24.732;2023-05-14T09:51:50;12.63;;;11.43;;
5754;SDS011;2902;42.130;24.732;2023-05-14T09:54:17;24.10;;;13.73;;
5754;SDS011;2902;42.130;24.732;2023-05-14T09:56:43;14.07;;;11.43;;
5754;SDS011;2902;42.130;24.732;2023-05-14T09:59:11;9.37;;;8.47;;
5754;SDS011;2902;42.130;24.732;2023-05-14T10:01:38;8.83;;;8.20;;
5754;SDS011;2902;42.130;24.732;2023-05-14T10:04:07;8.33;;;7.50;;
5754;SDS011;2902;42.130;24.732;2023-05-14T10:06:36;7.90;;;7.17;;
5754;SDS011;2902;42.130;24.732;2023-05-14T10:09:04;8.30;;;7.50;;
5754;SDS011;2902;42.130;24.732;2023-05-14T10:11:36;8.93;;;8.20;;
5754;SDS011;2902;42.130;24.732;2023-05-14T10:14:07;10.17;;;9.20;;
5754;SDS011;2902;42.130;24.732;2023-05-14T10:16:38;8.80;;;8.00;;
5754;SDS011;2902;42.130;24.732;2023-05-14T10:19:09;10.20;;;8.13;;
5754;SDS011;2902;42.130;24.732;2023-05-14T10:21:37;9.40;;;8.63;;
5754;SDS011;2902;42.130;24.732;2023-05-14T10:24:06;8.97;;;8.33;;
5754;SDS011;2902;42.130;24.732;2023-05-14T10:26:35;9.17;;;8.40;;
5754;SDS011;2902;42.130;24.732;2023-05-14T10:29:03;8.43;;;7.93;;
5754;SDS011;2902;42.130;24.732;2023-05-14T10:31:49;8.83;;;8.13;;
5754;SDS011;2902;42.130;24.732;2023-05-14T10:34:30;8.07;;;7.33;;
5754;SDS011;2902;42.130;24.732;2023-05-14T10:36:58;9.07;;;8.33;;
5754;SDS011;2902;42.130;24.732;2023-05-14T10:39:38;8.80;;;8.07;;
5754;SDS011;2902;42.130;24.732;2023-05-14T10:42:07;9.37;;;8.60;;
5754;SDS011;2902;42.130;24.732;2023-05-14T10:44:34;8.87;;;8.03;;
5754;SDS011;2902;42.130;24.732;2023-05-14T10:47:02;9.23;;;8.30;;
5754;SDS011;2902;42.130;24.732;2023-05-14T10:49:29;9.97;;;8.97;;
5754;SDS011;2902;42.130;24.732;2023-05-14T10:51:56;9.07;;;8.30;;
5754;SDS011;2902;42.130;24.732;2023-05-14T10:54:23;10.90;;;9.90;;
5754;SDS011;2902;42.130;24.732;2023-05-14T10:56:53;9.27;;;8.63;;
5754;SDS011;2902;42.130;24.732;2023-05-14T10:59:20;9.90;;;8.97;;
5754;SDS011;2902;42.130;24.732;2023-05-14T11:01:52;8.73;;;8.07;;
5754;SDS011;2902;42.130;24.732;2023-05-14T11:04:20;9.70;;;9.13;;
5754;SDS011;2902;42.130;24.732;2023-05-14T11:06:49;9.77;;;8.93;;
5754;SDS011;2902;42.130;24.732;2023-05-14T11:09:18;9.57;;;8.47;;
5754;SDS011;2902;42.130;24.732;2023-05-14T11:11:46;10.37;;;9.37;;
5754;SDS011;2902;42.130;24.732;2023-05-14T11:14:13;11.80;;;10.87;;
5754;SDS011;2902;42.130;24.732;2023-05-14T11:16:40;13.10;;;12.13;;
5754;SDS011;2902;42.130;24.732;2023-05-14T11:19:08;10.80;;;9.83;;
5754;SDS011;2902;42.130;24.732;2023-05-14T11:21:37;9.47;;;8.63;;
5754;SDS011;2902;42.130;24.732;2023-05-14T11:24:04;10.20;;;9.40;;
5754;SDS011;2902;42.130;24.732;2023-05-14T11:26:31;9.00;;;8.50;;
5754;SDS011;2902;42.130;24.732;2023-05-14T11:28:59;11.00;;;9.87;;
5754;SDS011;2902;42.130;24.732;2023-05-14T11:31:25;10.13;;;9.33;;
5754;SDS011;2902;42.130;24.732;2023-05-14T11:33:53;9.90;;;9.13;;
5754;SDS011;2902;42.130;24.732;2023-05-14T11:36:20;10.57;;;9.80;;
5754;SDS011;2902;42.130;24.732;2023-05-14T11:38:48;11.47;;;10.20;;
5754;SDS011;2902;42.130;24.732;2023-05-14T11:41:16;11.07;;;10.23;;
5754;SDS011;2902;42.130;24.732;2023-05-14T11:43:45;9.70;;;9.00;;
5754;SDS011;2902;42.130;24.732;2023-05-14T11:46:15;10.43;;;9.43;;
5754;SDS011;2902;42.130;24.732;2023-05-14T11:48:42;10.43;;;9.60;;
5754;SDS011;2902;42.130;24.732;2023-05-14T11:51:09;10.77;;;10.17;;
5754;SDS011;2902;42.130;24.732;2023-05-14T11:53:36;10.70;;;9.90;;
5754;SDS011;2902;42.130;24.732;2023-05-14T11:56:04;10.43;;;9.60;;
5754;SDS011;2902;42.130;24.732;2023-05-14T11:58:31;10.20;;;9.60;;
5754;SDS011;2902;42.130;24.732;2023-05-14T12:00:58;9.10;;;8.30;;
5754;SDS011;2902;42.130;24.732;2023-05-14T12:03:25;10.90;;;9.93;;
5754;SDS011;2902;42.130;24.732;2023-05-14T12:05:54;11.27;;;10.37;;
5754;SDS011;2902;42.130;24.732;2023-05-14T12:08:22;11.07;;;10.10;;
5754;SDS011;2902;42.130;24.732;2023-05-14T12:10:52;10.77;;;9.93;;
5754;SDS011;2902;42.130;24.732;2023-05-14T12:13:20;11.23;;;10.33;;
5754;SDS011;2902;42.130;24.732;2023-05-14T12:15:52;10.67;;;9.87;;
5754;SDS011;2902;42.130;24.732;2023-05-14T12:18:20;10.10;;;9.40;;
5754;SDS011;2902;42.130;24.732;2023-05-14T12:20:47;9.80;;;9.03;;
5754;SDS011;2902;42.130;24.732;2023-05-14T12:23:15;10.57;;;9.83;;
5754;SDS011;2902;42.130;24.732;2023-05-14T12:25:48;10.57;;;9.97;;
5754;SDS011;2902;42.130;24.732;2023-05-14T12:28:16;11.73;;;10.67;;
5754;SDS011;2902;42.130;24.732;2023-05-14T12:30:45;12.00;;;11.07;;
5754;SDS011;2902;42.130;24.732;2023-05-14T12:33:12;11.43;;;10.47;;
5754;SDS011;2902;42.130;24.732;2023-05-14T12:35:39;11.87;;;11.07;;
5754;SDS011;2902;42.130;24.732;2023-05-14T12:38:06;10.47;;;9.63;;
5754;SDS011;2902;42.130;24.732;2023-05-14T12:40:33;11.10;;;10.30;;
5754;SDS011;2902;42.130;24.732;2023-05-14T12:43:01;9.30;;;8.70;;
5754;SDS011;2902;42.130;24.732;2023-05-14T12:45:28;10.97;;;10.20;;
5754;SDS011;2902;42.130;24.732;2023-05-14T12:47:57;15.37;;;14.13;;
5754;SDS011;2902;42.130;24.732;2023-05-14T12:50:23;12.17;;;11.10;;
5754;SDS011;2902;42.130;24.732;2023-05-14T12:52:50;17.27;;;15.60;;
5754;SDS011;2902;42.130;24.732;2023-05-14T12:55:17;12.67;;;11.67;;
5754;SDS011;2902;42.130;24.732;2023-05-14T12:57:44;30.03;;;24.50;;
5754;SDS011;2902;42.130;24.732;2023-05-14T13:00:11;12.97;;;11.83;;
5754;SDS011;2902;42.130;24.732;2023-05-14T13:02:39;27.70;;;23.60;;
5754;SDS011;2902;42.130;24.732;2023-05-14T13:05:07;17.20;;;15.63;;
5754;SDS011;2902;42.130;24.732;2023-05-14T13:07:34;15.20;;;13.90;;
5754;SDS011;2902;42.130;24.732;2023-05-14T13:10:01;16.63;;;14.90;;
5754;SDS011;2902;42.130;24.732;2023-05-14T13:12:29;18.23;;;16.40;;
5754;SDS011;2902;42.130;24.732;2023-05-14T13:14:57;18.70;;;16.87;;
5754;SDS011;2902;42.130;24.732;2023-05-14T13:17:24;18.30;;;16.60;;
5754;SDS011;2902;42.130;24.732;2023-05-14T13:19:51;18.80;;;16.80;;
5754;SDS011;2902;42.130;24.732;2023-05-14T13:22:19;19.00;;;17.30;;
5754;SDS011;2902;42.130;24.732;2023-05-14T13:24:46;20.43;;;18.53;;
5754;SDS011;2902;42.130;24.732;2023-05-14T13:27:13;18.77;;;17.07;;
5754;SDS011;2902;42.130;24.732;2023-05-14T13:29:40;18.27;;;16.37;;
5754;SDS011;2902;42.130;24.732;2023-05-14T13:32:06;21.73;;;17.63;;
5754;SDS011;2902;42.130;24.732;2023-05-14T13:34:33;19.57;;;17.17;;
5754;SDS011;2902;42.130;24.732;2023-05-14T13:37:00;17.47;;;15.70;;
5754;SDS011;2902;42.130;24.732;2023-05-14T13:39:29;16.20;;;14.73;;
5754;SDS011;2902;42.130;24.732;2023-05-14T13:41:56;18.67;;;17.00;;
5754;SDS011;2902;42.130;24.732;2023-05-14T13:44:22;19.70;;;17.60;;
5754;SDS011;2902;42.130;24.732;2023-05-14T13:46:49;20.17;;;18.07;;
5754;SDS011;2902;42.130;24.732;2023-05-14T13:49:16;19.77;;;18.00;;
5754;SDS011;2902;42.130;24.732;2023-05-14T13:51:43;19.80;;;17.93;;
5754;SDS011;2902;42.130;24.732;2023-05-14T13:54:09;19.63;;;17.70;;
5754;SDS011;2902;42.130;24.732;2023-05-14T13:56:38;19.07;;;16.90;;
5754;SDS011;2902;42.130;24.732;2023-05-14T13:59:04;19.40;;;17.43;;
5754;SDS011;2902;42.130;24.732;2023-05-14T14:01:31;19.00;;;17.03;;
5754;SDS011;2902;42.130;24.732;2023-05-14T14:03:58;19.97;;;16.23;;
5754;SDS011;2902;42.130;24.732;2023-05-14T14:06:25;17.90;;;16.10;;
5754;SDS011;2902;42.130;24.732;2023-05-14T14:08:52;16.93;;;15.50;;
5754;SDS011;2902;42.130;24.732;2023-05-14T14:11:19;18.17;;;16.53;;
5754;SDS011;2902;42.130;24.732;2023-05-14T14:13:47;18.03;;;16.23;;
5754;SDS011;2902;42.130;24.732;2023-05-14T14:16:14;19.77;;;17.80;;
5754;SDS011;2902;42.130;24.732;2023-05-14T14:18:40;17.47;;;15.97;;
5754;SDS011;2902;42.130;24.732;2023-05-14T14:21:08;19.10;;;17.37;;
5754;SDS011;2902;42.130;24.732;2023-05-14T14:23:34;18.10;;;16.07;;
5754;SDS011;2902;42.130;24.732;2023-05-14T14:26:01;17.87;;;16.37;;
5754;SDS011;2902;42.130;24.732;2023-05-14T14:28:28;17.37;;;15.73;;
5754;SDS011;2902;42.130;24.732;2023-05-14T14:30:56;17.60;;;15.80;;
5754;SDS011;2902;42.130;24.732;2023-05-14T14:33:23;17.80;;;16.03;;
5754;SDS011;2902;42.130;24.732;2023-05-14T14:35:50;17.43;;;15.90;;
5754;SDS011;2902;42.130;24.732;2023-05-14T14:38:17;18.37;;;16.57;;
5754;SDS011;2902;42.130;24.732;2023-05-14T14:40:43;17.43;;;15.87;;
5754;SDS011;2902;42.130;24.732;2023-05-14T14:43:10;17.53;;;15.83;;
5754;SDS011;2902;42.130;24.732;2023-05-14T14:45:37;18.13;;;16.33;;
5754;SDS011;2902;42.130;24.732;2023-05-14T14:48:27;19.00;;;16.60;;
5754;SDS011;2902;42.130;24.732;2023-05-14T14:50:55;18.97;;;17.17;;
5754;SDS011;2902;42.130;24.732;2023-05-14T14:53:22;19.03;;;17.20;;
5754;SDS011;2902;42.130;24.732;2023-05-14T14:55:49;18.77;;;16.77;;
5754;SDS011;2902;42.130;24.732;2023-05-14T14:58:17;20.37;;;18.27;;